Terminal Aerodrome Forecast
Issued by NWS St Louis, MO

Home | Current Version | Previous Version | Text Only | Print | Product List | Glossary On
Versions: 1 2 3 4 5 6 7 8 9 10 11 12 13 14 15 16 17
000
FTUS43 KLSX 160700 AAA
TAFCOU
TAF AMD
KCOU 160704Z 1607/1706 26015G25KT P6SM SCT007 OVC012
      TEMPO 1607/1610 4SM -RA BR OVC007
     FM161000 29016G26KT P6SM OVC012
     FM161800 30014G24KT P6SM OVC025=

USA.gov is the U.S. government's official web portal to all federal, state and local government web resources and services.